Time;durP1;ratioP1;P1;durP2;ratioP2;P2;SDS_P1;SDS_P2;PMS_P1;PMS_P2;Temp;Humidity;BMP_temperature;BMP_pressure;BME280_temperature;BME280_humidity;BME280_pressure;Samples;Min_cycle;Max_cycle;Signal;HPM_P1;HPM_P2
2021/01/27 00:00:25;;;;;;;5.78;4.33;;;;;;;10.29;52.82;98961.43;1805407;78;21235;-67
2021/01/27 00:02:52;;;;;;;4.62;4.17;;;;;;;10.30;52.80;98967.59;1801271;78;22253;-65
2021/01/27 00:05:25;;;;;;;5.50;4.67;;;;;;;10.29;52.78;98963.27;1781106;79;21135;-66
2021/01/27 00:07:52;;;;;;;5.10;4.27;;;;;;;10.29;52.74;98961.95;1792059;79;21187;-65
2021/01/27 00:10:21;;;;;;;4.53;4.10;;;;;;;10.28;52.73;98965.11;1797384;79;21642;-66
2021/01/27 00:12:49;;;;;;;4.87;4.20;;;;;;;10.26;52.74;98959.16;1781829;79;21142;-66
2021/01/27 00:15:27;;;;;;;5.47;4.20;;;;;;;10.26;52.74;98963.15;1780512;79;21191;-66
2021/01/27 00:17:55;;;;;;;5.83;4.60;;;;;;;10.26;52.73;98964.47;1780773;79;21170;-66
2021/01/27 00:20:24;;;;;;;5.03;3.98;;;;;;;10.26;52.73;98963.15;1784626;79;21171;-65
2021/01/27 00:22:53;;;;;;;4.87;4.30;;;;;;;10.25;52.69;98961.48;1792470;79;21217;-66
2021/01/27 00:25:29;;;;;;;4.90;4.20;;;;;;;10.26;52.70;98962.30;1780211;79;21158;-65
2021/01/27 00:27:57;;;;;;;5.60;4.10;;;;;;;10.24;52.67;98959.34;1788709;79;23613;-66
2021/01/27 00:30:36;;;;;;;4.75;3.77;;;;;;;10.24;52.60;98958.53;1810780;78;21961;-66
2021/01/27 00:33:05;;;;;;;5.00;4.10;;;;;;;10.24;52.59;98961.19;1813400;78;21127;-65
2021/01/27 00:35:35;;;;;;;5.83;4.72;;;;;;;10.22;52.57;98949.93;1808204;78;21162;-66
2021/01/27 00:38:16;;;;;;;6.08;4.08;;;;;;;10.21;52.59;98946.94;1780413;79;21576;-66
2021/01/27 00:40:43;;;;;;;4.92;4.35;;;;;;;10.20;52.60;98943.98;1810092;78;21260;-65
2021/01/27 00:43:11;;;;;;;4.83;4.28;;;;;;;10.19;52.60;98940.48;1773942;79;21184;-66
2021/01/27 00:45:38;;;;;;;6.20;4.65;;;;;;;10.18;52.58;98943.34;1767167;80;21186;-66
2021/01/27 00:48:07;;;;;;;5.85;4.78;;;;;;;10.18;52.59;98944.16;1811719;78;21166;-65
2021/01/27 00:50:36;;;;;;;5.60;4.55;;;;;;;10.18;52.56;98935.39;1816863;78;21661;-66
2021/01/27 00:53:04;;;;;;;4.95;4.42;;;;;;;10.18;52.54;98931.41;1786881;78;21381;-66
2021/01/27 00:55:33;;;;;;;5.00;4.50;;;;;;;10.16;52.51;98936.89;1789634;78;21579;-66
2021/01/27 00:58:00;;;;;;;4.55;4.00;;;;;;;10.17;52.49;98939.03;1793634;78;21788;-66
2021/01/27 01:00:32;;;;;;;5.55;4.28;;;;;;;10.16;52.50;98930.26;1823468;78;21171;-67
2021/01/27 01:03:01;;;;;;;5.35;4.72;;;;;;;10.16;52.46;98934.23;1796962;78;21115;-67
2021/01/27 01:05:33;;;;;;;6.03;4.58;;;;;;;10.16;52.45;98942.20;1789699;80;21430;-67
2021/01/27 01:08:00;;;;;;;5.78;4.92;;;;;;;10.15;52.43;98938.40;1809438;78;21193;-67
2021/01/27 01:10:35;;;;;;;4.95;4.10;;;;;;;10.15;52.41;98936.56;1765137;80;21219;-67
2021/01/27 01:13:04;;;;;;;;;;;;;;;10.14;52.39;98932.27;1780444;80;21186;-66
2021/01/27 01:15:31;;;;;;;4.85;4.12;;;;;;;10.14;52.37;98931.43;1759012;80;20524;-67
2021/01/27 01:18:00;;;;;;;5.35;4.70;;;;;;;10.07;52.49;98931.88;1818935;78;21386;-65
2021/01/27 01:20:28;;;;;;;5.65;4.92;;;;;;;10.06;52.51;98928.88;1821666;78;21134;-65
2021/01/27 01:22:57;;;;;;;4.80;4.30;;;;;;;10.07;52.51;98930.55;1797008;78;21130;-66
2021/01/27 01:25:27;;;;;;;5.72;4.58;;;;;;;10.07;52.48;98926.56;1789268;80;21586;-67
2021/01/27 01:27:55;;;;;;;5.80;4.47;;;;;;;10.07;52.43;98926.56;1826376;78;21635;-66
2021/01/27 01:30:27;;;;;;;5.60;4.70;;;;;;;10.06;52.43;98922.25;1809536;78;21195;-66
2021/01/27 01:32:56;;;;;;;5.00;4.12;;;;;;;10.06;52.41;98931.02;1789680;79;21219;-66
2021/01/27 01:35:24;;;;;;;5.60;4.92;;;;;;;10.05;52.38;98929.39;1790459;79;21171;-65
2021/01/27 01:37:51;;;;;;;5.17;4.12;;;;;;;10.06;52.38;98931.53;1780593;79;21135;-66
2021/01/27 01:40:22;;;;;;;5.08;4.10;;;;;;;10.06;52.38;98918.27;1785428;79;21115;-67
2021/01/27 01:43:12;;;;;;;7.97;5.30;;;;;;;10.05;52.36;98910.82;1801325;78;21356;-66
2021/01/27 01:45:47;;;;;;;4.95;4.45;;;;;;;10.04;52.32;98911.33;1770618;80;21560;-66
2021/01/27 01:48:50;;;;;;;5.67;4.33;;;;;;;10.02;52.33;98913.35;1817458;78;21622;-66
2021/01/27 01:51:55;;;;;;;5.62;4.50;;;;;;;10.01;52.35;98913.02;1818757;78;21130;-67
2021/01/27 01:54:41;;;;;;;5.75;4.70;;;;;;;9.99;52.36;98906.26;1767560;80;21198;-67
2021/01/27 01:57:14;;;;;;;5.12;4.42;;;;;;;9.96;52.41;98904.77;1774652;79;21273;-67
2021/01/27 01:59:44;;;;;;;5.62;4.75;;;;;;;9.95;52.39;98899.68;1796600;78;21218;-66
2021/01/27 02:02:12;;;;;;;5.50;4.60;;;;;;;9.94;52.39;98904.65;1775514;78;21140;-66
2021/01/27 02:04:47;;;;;;;5.10;4.30;;;;;;;9.94;52.41;98903.33;1786588;78;21181;-65
2021/01/27 02:07:15;;;;;;;5.83;4.58;;;;;;;9.94;52.40;98902.81;1785417;79;21209;-65
2021/01/27 02:09:43;;;;;;;6.20;5.05;;;;;;;9.94;52.39;98902.00;1789740;79;21211;-67
2021/01/27 02:12:43;;;;;;;5.78;4.62;;;;;;;9.94;52.38;98904.65;1787356;79;21163;-66
2021/01/27 02:15:53;;;;;;;6.20;4.75;;;;;;;9.95;52.35;98902.33;1806262;78;21675;-67
2021/01/27 02:18:41;;;;;;;5.47;4.40;;;;;;;9.92;52.34;98895.55;1811084;78;21158;-66
2021/01/27 02:22:01;;;;;;;6.33;4.58;;;;;;;9.89;52.36;98897.73;1754946;78;21124;-65
2021/01/27 02:24:52;;;;;;;5.47;4.37;;;;;;;9.88;52.41;98894.78;1782077;80;21572;-65
2021/01/27 02:27:42;;;;;;;5.15;4.20;;;;;;;9.84;52.41;98898.30;1783470;79;21152;-66
2021/01/27 02:30:23;;;;;;;5.90;4.72;;;;;;;9.82;52.45;98902.45;1790737;78;21623;-67
2021/01/27 02:33:20;;;;;;;5.65;4.62;;;;;;;9.81;52.46;98900.83;1766688;80;21604;-66
2021/01/27 02:36:05;;;;;;;5.22;4.55;;;;;;;9.80;52.48;98893.05;1794586;79;21175;-66
2021/01/27 02:38:37;;;;;;;5.17;4.60;;;;;;;9.79;52.48;98888.25;1801083;78;21355;-67
2021/01/27 02:41:12;;;;;;;6.67;5.20;;;;;;;9.79;52.48;98885.60;1790833;78;21643;-67
2021/01/27 02:43:42;;;;;;;5.70;4.67;;;;;;;9.80;52.49;98891.20;1779996;79;21134;-67
2021/01/27 02:46:34;;;;;;;5.85;5.03;;;;;;;9.81;52.43;98894.67;1790692;79;21210;-67
2021/01/27 02:49:19;;;;;;;5.65;4.50;;;;;;;9.81;52.40;98894.67;1790850;79;21138;-67
2021/01/27 02:51:59;;;;;;;5.78;4.85;;;;;;;9.80;52.40;98887.74;1780512;79;23725;-66
2021/01/27 02:54:44;;;;;;;5.30;4.30;;;;;;;9.80;52.40;98890.39;1787544;78;21624;-66
2021/01/27 02:57:20;;;;;;;6.08;4.90;;;;;;;9.80;52.42;98885.09;1815058;78;21172;-65
2021/01/27 03:00:13;;;;;;;5.40;4.42;;;;;;;9.83;52.39;98884.70;1821518;76;28301;-68
2021/01/27 03:02:48;;;;;;;6.40;4.80;;;;;;;9.79;52.41;98883.43;1804824;78;21603;-66
2021/01/27 03:05:30;;;;;;;5.62;4.78;;;;;;;9.80;52.39;98889.88;1832032;77;21194;-66
2021/01/27 03:08:02;;;;;;;4.67;4.17;;;;;;;9.80;52.36;98890.39;1834841;77;21108;-65
2021/01/27 03:10:37;;;;;;;5.47;4.78;;;;;;;9.80;52.36;98897.03;1830064;77;21656;-67
2021/01/27 03:13:04;;;;;;;6.62;5.15;;;;;;;9.80;52.34;98900.49;1837047;77;21613;-68
2021/01/27 03:15:35;;;;;;;6.42;5.55;;;;;;;9.80;52.34;98893.05;1835182;77;20990;-66
2021/01/27 03:18:05;;;;;;;5.45;4.83;;;;;;;9.80;52.30;98891.20;1789657;77;21370;-65
2021/01/27 03:20:36;;;;;;;5.53;4.95;;;;;;;9.81;52.31;98884.06;1824377;77;21604;-65
2021/01/27 03:23:20;;;;;;;5.92;4.92;;;;;;;9.81;52.26;98884.06;1825333;77;21005;-66
2021/01/27 03:25:58;;;;;;;4.95;4.28;;;;;;;9.82;52.23;98882.56;1838366;77;21152;-67
2021/01/27 03:28:32;;;;;;;5.75;4.92;;;;;;;9.82;52.23;98870.63;1843283;77;21594;-65
2021/01/27 03:30:59;;;;;;;5.75;5.15;;;;;;;9.82;52.19;98869.81;1845716;77;21200;-65
2021/01/27 03:33:35;;;;;;;5.37;4.67;;;;;;;9.82;52.17;98872.47;1802634;77;21437;-65
2021/01/27 03:36:04;;;;;;;7.70;5.60;;;;;;;9.81;52.18;98858.39;1816464;78;21154;-65
2021/01/27 03:38:43;;;;;;;6.53;4.67;;;;;;;9.81;52.17;98860.19;1774917;78;21158;-66
2021/01/27 03:41:27;;;;;;;6.22;5.25;;;;;;;9.80;52.12;98859.38;1817313;77;21160;-65
2021/01/27 03:44:16;;;;;;;6.15;5.20;;;;;;;9.80;52.15;98857.23;1771785;79;21372;-66
2021/01/27 03:47:04;;;;;;;4.87;4.37;;;;;;;9.80;52.14;98862.55;1828524;77;21125;-67
2021/01/27 03:49:35;;;;;;;6.95;5.67;;;;;;;9.80;52.12;98863.88;1803672;78;21149;-66
2021/01/27 03:52:24;;;;;;;6.83;5.43;;;;;;;9.79;52.13;98868.84;1815371;77;21577;-66
2021/01/27 03:55:24;;;;;;;5.55;4.97;;;;;;;9.78;52.13;98875.98;1795385;78;21114;-66
2021/01/27 03:58:06;;;;;;;5.87;5.17;;;;;;;9.77;52.11;98880.98;1761903;80;21253;-65
2021/01/27 04:00:33;;;;;;;6.00;5.40;;;;;;;9.76;52.13;98874.53;1753845;81;21160;-65
2021/01/27 04:03:17;;;;;;;6.30;5.28;;;;;;;9.75;52.16;98876.85;1757862;80;21176;-66
2021/01/27 04:05:45;;;;;;;6.10;4.97;;;;;;;9.74;52.16;98872.06;1769305;78;21161;-66
2021/01/27 04:08:13;;;;;;;5.65;4.87;;;;;;;9.74;52.16;98870.73;1766823;80;21238;-66
2021/01/27 04:10:41;;;;;;;6.28;5.40;;;;;;;9.75;52.14;98873.69;1774525;78;21183;-65
2021/01/27 04:13:09;;;;;;;5.92;5.33;;;;;;;9.76;52.12;98869.23;1766295;80;21197;-66
2021/01/27 04:15:36;;;;;;;7.85;5.83;;;;;;;9.76;52.10;98863.92;1794311;78;21196;-67
2021/01/27 04:18:04;;;;;;;6.12;5.35;;;;;;;9.77;52.09;98866.88;1804817;78;21140;-67
2021/01/27 04:20:32;;;;;;;5.97;5.28;;;;;;;9.78;52.06;98871.19;1800046;78;21569;-67
2021/01/27 04:23:00;;;;;;;7.00;5.87;;;;;;;9.78;52.01;98873.84;1814337;78;21440;-67
2021/01/27 04:25:27;;;;;;;5.62;4.70;;;;;;;9.78;52.01;98877.82;1805125;78;21185;-67
2021/01/27 04:27:54;;;;;;;7.45;5.78;;;;;;;9.78;52.00;98880.47;1810774;78;21235;-66
2021/01/27 04:30:27;;;;;;;6.55;5.37;;;;;;;9.78;51.98;98885.27;1802587;78;21610;-66
2021/01/27 04:32:57;;;;;;;6.90;5.60;;;;;;;9.78;51.94;98889.25;1798081;78;21149;-67
2021/01/27 04:35:25;;;;;;;7.85;5.95;;;;;;;9.78;51.94;98891.08;1802738;78;21427;-67
2021/01/27 04:37:54;;;;;;;7.17;5.72;;;;;;;9.77;51.93;98888.94;1794323;78;21625;-66
2021/01/27 04:40:33;;;;;;;5.87;5.28;;;;;;;9.78;51.93;98891.90;1803328;78;21166;-66
2021/01/27 04:43:04;;;;;;;6.20;5.60;;;;;;;9.78;51.90;98890.57;1806993;78;21174;-66
2021/01/27 04:45:31;;;;;;;6.80;5.87;;;;;;;9.78;51.91;98884.45;1801671;77;21164;-66
2021/01/27 04:48:16;;;;;;;7.37;5.62;;;;;;;9.77;51.89;98886.77;1787777;80;21374;-65
2021/01/27 04:50:51;;;;;;;6.33;5.55;;;;;;;9.78;51.86;98885.78;1806509;78;21464;-67
2021/01/27 04:53:45;;;;;;;5.85;5.20;;;;;;;9.77;51.86;98896.91;1775940;78;21159;-66
2021/01/27 04:56:30;;;;;;;6.65;5.35;;;;;;;9.77;51.87;98885.44;1770610;78;21170;-66
2021/01/27 04:59:08;;;;;;;5.72;4.97;;;;;;;9.76;51.90;98890.45;1795849;78;21408;-66
2021/01/27 05:02:14;;;;;;;6.83;5.78;;;;;;;9.74;51.88;98886.64;1839397;77;21409;-66
2021/01/27 05:04:51;;;;;;;5.92;4.97;;;;;;;9.74;51.87;98889.81;1789392;78;21188;-66
2021/01/27 05:07:26;;;;;;;7.03;5.15;;;;;;;9.73;51.93;98894.78;1794024;78;21210;-67
2021/01/27 05:09:57;;;;;;;6.37;5.62;;;;;;;9.71;51.92;98894.95;1804310;78;21391;-66
2021/01/27 05:12:30;;;;;;;5.90;5.30;;;;;;;9.70;51.96;98895.98;1815304;77;21154;-65
2021/01/27 05:14:59;;;;;;;5.85;4.85;;;;;;;9.71;51.94;98894.14;1795125;78;21137;-66
2021/01/27 05:17:26;;;;;;;7.47;5.97;;;;;;;9.71;51.92;98892.81;1808095;78;21308;-68
2021/01/27 05:19:54;;;;;;;6.87;5.50;;;;;;;9.70;51.90;98892.00;1810302;78;21148;-66
2021/01/27 05:22:21;;;;;;;6.72;5.78;;;;;;;9.71;51.89;98892.30;1803821;78;21677;-66
2021/01/27 05:24:49;;;;;;;6.35;5.37;;;;;;;9.71;51.89;98888.84;1811923;78;21200;-65
2021/01/27 05:27:32;;;;;;;6.65;5.85;;;;;;;9.71;51.88;98901.59;1837104;76;21355;-66
2021/01/27 05:30:17;;;;;;;6.67;5.58;;;;;;;9.72;51.88;98906.41;1837098;77;21139;-65
2021/01/27 05:32:51;;;;;;;6.42;5.17;;;;;;;9.73;51.87;98913.34;1826219;77;21180;-68
2021/01/27 05:35:38;;;;;;;7.35;5.85;;;;;;;9.72;51.84;98915.69;1843503;77;21095;-68
2021/01/27 05:38:31;;;;;;;7.20;5.92;;;;;;;9.71;51.82;98918.83;1790719;78;21155;-67
2021/01/27 05:41:10;;;;;;;8.08;5.83;;;;;;;9.70;51.83;98921.69;1784054;78;22293;-67
2021/01/27 05:43:37;;;;;;;6.35;5.75;;;;;;;9.69;51.83;98921.34;1809536;78;21194;-68
2021/01/27 05:46:16;;;;;;;6.95;5.67;;;;;;;9.68;51.86;98930.30;1813181;78;21352;-68
2021/01/27 05:48:50;;;;;;;7.35;5.53;;;;;;;9.73;51.87;98927.42;1805198;77;28168;-69
2021/01/27 05:51:32;;;;;;;6.35;5.53;;;;;;;9.68;51.83;98936.45;1779089;79;21626;-67
2021/01/27 05:54:03;;;;;;;6.58;5.97;;;;;;;9.66;51.83;98937.13;1774590;79;21418;-69
2021/01/27 05:56:31;;;;;;;7.42;6.12;;;;;;;9.69;51.83;98938.59;1796472;79;21141;-68
2021/01/27 05:59:05;;;;;;;6.97;6.03;;;;;;;9.66;51.83;98927.85;1789133;78;21168;-67
2021/01/27 06:01:44;;;;;;;7.40;5.95;;;;;;;9.68;51.83;98935.60;1745199;79;21209;-67
2021/01/27 06:04:22;;;;;;;6.97;6.10;;;;;;;9.67;51.81;98939.28;1796467;78;21116;-68
2021/01/27 06:06:54;;;;;;;6.97;5.35;;;;;;;9.68;51.82;98944.89;1813524;78;21585;-68
2021/01/27 06:09:43;;;;;;;8.00;6.08;;;;;;;9.68;51.78;98947.53;1799942;79;22073;-67
2021/01/27 06:12:22;;;;;;;7.62;6.12;;;;;;;9.67;51.78;98945.39;1790967;78;21621;-68
2021/01/27 06:14:59;;;;;;;7.85;6.70;;;;;;;9.65;51.78;98941.59;1792475;78;21173;-68
2021/01/27 06:17:33;;;;;;;7.08;6.35;;;;;;;9.66;51.80;98941.11;1795955;79;21192;-67
2021/01/27 06:20:18;;;;;;;7.53;6.35;;;;;;;9.68;51.79;98954.16;1796557;79;21174;-67
2021/01/27 06:23:26;;;;;;;8.28;6.30;;;;;;;9.68;51.78;98958.14;1785085;79;21639;-68
2021/01/27 06:26:05;;;;;;;7.25;5.95;;;;;;;9.68;51.78;98960.31;1743623;79;21197;-69
2021/01/27 06:28:56;;;;;;;6.47;5.45;;;;;;;9.65;51.77;98955.36;1817235;78;21177;-69
2021/01/27 06:31:32;;;;;;;7.20;6.08;;;;;;;9.65;51.80;98956.69;1796565;78;21183;-69
2021/01/27 06:34:43;;;;;;;6.12;5.45;;;;;;;9.63;51.79;98955.53;1807396;78;22078;-66
2021/01/27 06:37:52;;;;;;;8.20;6.72;;;;;;;9.63;51.81;98958.19;1806950;78;21631;-68
2021/01/27 06:41:00;;;;;;;8.45;6.45;;;;;;;9.62;51.83;98958.39;1799072;79;21588;-68
2021/01/27 06:44:07;;;;;;;7.53;6.05;;;;;;;9.59;51.84;98952.93;1805261;79;21213;-67
2021/01/27 06:46:52;;;;;;;8.85;6.37;;;;;;;9.58;51.84;98951.30;1804424;78;21199;-67
2021/01/27 06:50:00;;;;;;;7.70;6.47;;;;;;;9.57;51.88;98956.27;1819937;78;21634;-66
2021/01/27 06:53:15;;;;;;;8.08;6.28;;;;;;;9.58;51.87;98958.41;1798703;78;21163;-68
2021/01/27 06:56:17;;;;;;;9.33;7.08;;;;;;;9.57;51.86;98956.27;1822882;78;21180;-67
2021/01/27 06:59:22;;;;;;;8.10;6.28;;;;;;;9.55;51.94;98953.48;1803098;78;21167;-67
2021/01/27 07:02:12;;;;;;;8.38;7.08;;;;;;;9.54;51.94;98949.17;1803689;77;21079;-67
2021/01/27 07:05:23;;;;;;;9.15;7.08;;;;;;;9.53;51.95;98943.05;1821842;77;21358;-68
2021/01/27 07:08:05;;;;;;;7.35;6.20;;;;;;;9.54;51.94;98946.52;1799982;78;21155;-67
2021/01/27 07:10:50;;;;;;;9.53;6.90;;;;;;;9.54;51.96;98939.89;1796388;79;21186;-67
2021/01/27 07:13:55;;;;;;;9.20;7.67;;;;;;;9.55;51.96;98942.88;1802613;78;21135;-68
2021/01/27 07:16:56;;;;;;;8.10;6.35;;;;;;;9.56;51.93;98945.84;1793035;79;21205;-67
2021/01/27 07:19:55;;;;;;;10.32;7.15;;;;;;;9.57;51.92;98952.29;1802730;78;22001;-67
2021/01/27 07:22:42;;;;;;;9.13;7.25;;;;;;;9.57;51.92;98949.64;1803407;78;21266;-67
2021/01/27 07:25:30;;;;;;;9.70;7.58;;;;;;;9.58;51.91;98948.64;1788249;79;21579;-67
2021/01/27 07:28:22;;;;;;;10.63;6.87;;;;;;;9.59;51.91;98948.95;1798855;78;21169;-67
2021/01/27 07:30:58;;;;;;;8.53;7.25;;;;;;;9.61;51.92;98948.78;1785822;78;21161;-66
2021/01/27 07:33:36;;;;;;;8.73;7.17;;;;;;;9.63;51.88;98950.74;1803907;78;22683;-66
2021/01/27 07:36:21;;;;;;;8.18;7.22;;;;;;;9.64;51.85;98957.20;1784535;79;21639;-68
2021/01/27 07:38:48;;;;;;;8.28;7.28;;;;;;;9.68;51.83;98959.47;1789453;79;21217;-65
2021/01/27 07:41:19;;;;;;;8.43;7.53;;;;;;;9.69;51.79;98951.85;1806449;78;21161;-66
2021/01/27 07:44:06;;;;;;;9.08;7.62;;;;;;;9.70;51.77;98948.20;1815536;77;21194;-66
2021/01/27 07:46:44;;;;;;;8.78;7.22;;;;;;;9.74;51.73;98948.16;1790203;79;21202;-66
2021/01/27 07:49:12;;;;;;;9.23;7.37;;;;;;;9.75;51.74;98943.16;1788642;78;21158;-66
2021/01/27 07:51:56;;;;;;;9.73;7.35;;;;;;;9.77;51.72;98949.10;1786658;78;21168;-66
2021/01/27 07:54:38;;;;;;;9.20;7.75;;;;;;;9.78;51.68;98940.97;1763587;79;21635;-67
2021/01/27 07:57:11;;;;;;;9.15;7.80;;;;;;;9.81;51.60;98943.75;1774614;78;21153;-67
2021/01/27 07:59:50;;;;;;;9.13;7.83;;;;;;;9.82;51.56;98940.11;1797555;78;22597;-68
2021/01/27 08:02:25;;;;;;;9.85;8.10;;;;;;;9.84;51.51;98934.92;1779816;79;21182;-65
2021/01/27 08:05:03;;;;;;;8.95;7.53;;;;;;;9.87;51.49;98935.09;1796954;78;21192;-67
2021/01/27 08:07:38;;;;;;;7.72;6.92;;;;;;;9.89;51.44;98938.38;1786438;78;21169;-67
2021/01/27 08:10:29;;;;;;;10.25;7.97;;;;;;;9.91;51.42;98939.02;1788399;79;21602;-66
2021/01/27 08:13:01;;;;;;;8.58;7.65;;;;;;;9.94;51.36;98942.61;1800480;78;21364;-65
2021/01/27 08:15:34;;;;;;;8.43;7.40;;;;;;;9.95;51.32;98934.98;1797477;78;21194;-64
2021/01/27 08:18:12;;;;;;;10.32;7.92;;;;;;;9.97;51.32;98934.81;1811367;79;21193;-67
2021/01/27 08:20:43;;;;;;;8.10;7.15;;;;;;;9.99;51.23;98932.28;1797288;78;21211;-66
2021/01/27 08:23:25;;;;;;;9.53;7.22;;;;;;;9.99;51.22;98938.91;1799661;79;21197;-65
2021/01/27 08:26:03;;;;;;;8.38;6.97;;;;;;;10.01;51.20;98938.23;1783665;79;21376;-67
2021/01/27 08:28:43;;;;;;;8.43;7.20;;;;;;;10.04;51.13;98945.83;1793563;79;21708;-67
2021/01/27 08:31:18;;;;;;;8.60;7.40;;;;;;;10.06;51.09;98942.16;1790892;78;21637;-65
2021/01/27 08:33:54;;;;;;;8.58;7.35;;;;;;;10.07;51.03;98938.00;1790928;79;21602;-65
2021/01/27 08:36:34;;;;;;;10.80;8.08;;;;;;;10.10;51.00;98948.73;1795271;78;21173;-66
2021/01/27 08:39:07;;;;;;;11.53;7.75;;;;;;;10.11;51.00;98939.27;1787540;78;21228;-66
2021/01/27 08:42:18;;;;;;;9.18;7.90;;;;;;;10.12;51.00;98942.26;1771756;79;21178;-67
2021/01/27 08:44:45;;;;;;;9.18;7.78;;;;;;;10.14;50.96;98940.72;1811943;78;21624;-67
2021/01/27 08:47:35;;;;;;;9.45;7.60;;;;;;;10.15;50.95;98939.72;1798410;79;21221;-65
2021/01/27 08:50:04;;;;;;;9.33;7.83;;;;;;;10.17;50.94;98941.69;1800097;77;21149;-64
2021/01/27 08:52:34;;;;;;;10.80;8.50;;;;;;;10.19;50.87;98941.00;1801146;78;21313;-65
2021/01/27 08:55:31;;;;;;;9.03;7.90;;;;;;;10.20;50.81;98942.66;1804524;78;21123;-66
2021/01/27 08:58:38;;;;;;;10.13;7.83;;;;;;;10.28;50.83;98940.41;1753491;79;28765;-66
2021/01/27 09:01:26;;;;;;;8.88;7.80;;;;;;;10.24;50.75;98937.30;1751615;80;22211;-64
2021/01/27 09:03:55;;;;;;;8.95;7.28;;;;;;;10.25;50.80;98944.23;1711171;81;21631;-64
2021/01/27 09:06:34;;;;;;;9.53;8.08;;;;;;;10.25;50.79;98945.56;1724710;81;21189;-64
2021/01/27 09:09:23;;;;;;;8.65;7.37;;;;;;;10.27;50.77;98940.89;1740210;80;21561;-65
2021/01/27 09:11:58;;;;;;;10.75;8.13;;;;;;;10.30;50.69;98937.91;1731619;81;21066;-66
2021/01/27 09:14:26;;;;;;;9.55;8.08;;;;;;;10.31;50.68;98930.75;1739327;81;21163;-64
2021/01/27 09:16:54;;;;;;;10.35;7.72;;;;;;;10.31;50.68;98923.61;1732275;82;21186;-66
2021/01/27 09:19:23;;;;;;;10.10;8.65;;;;;;;10.33;50.61;98922.91;1733585;80;21187;-66
2021/01/27 09:22:09;;;;;;;8.85;7.40;;;;;;;10.36;50.58;98930.52;1741657;80;21190;-66
2021/01/27 09:24:48;;;;;;;10.72;8.08;;;;;;;10.38;50.54;98928.50;1737870;81;21171;-66
2021/01/27 09:27:27;;;;;;;9.33;7.70;;;;;;;10.38;50.49;98925.84;1738456;80;21579;-66
2021/01/27 09:30:13;;;;;;;8.48;7.25;;;;;;;10.41;50.47;98930.79;1725863;81;21375;-65
2021/01/27 09:32:41;;;;;;;10.80;8.48;;;;;;;10.42;50.45;98931.61;1713206;81;21611;-65
2021/01/27 09:35:20;;;;;;;10.15;7.55;;;;;;;10.43;50.41;98927.95;1731450;80;21351;-68
2021/01/27 09:38:00;;;;;;;9.18;7.45;;;;;;;10.45;50.39;98930.40;1740135;80;21179;-66
2021/01/27 09:40:34;;;;;;;8.75;7.80;;;;;;;10.47;50.37;98924.39;1735438;81;21207;-68
2021/01/27 09:43:10;;;;;;;10.63;8.38;;;;;;;10.48;50.34;98931.37;1729485;81;21205;-66
2021/01/27 09:45:40;;;;;;;10.43;8.10;;;;;;;10.48;50.33;98927.38;1731747;81;21147;-66
2021/01/27 09:48:08;;;;;;;8.83;7.55;;;;;;;10.49;50.32;98933.00;1724978;81;21227;-65
2021/01/27 09:50:41;;;;;;;8.65;7.62;;;;;;;10.49;50.27;98932.52;1727139;81;21167;-65
2021/01/27 09:53:14;;;;;;;10.08;8.78;;;;;;;10.51;50.26;98931.00;1731511;81;21139;-64
2021/01/27 09:55:41;;;;;;;7.90;6.35;;;;;;;10.52;50.23;98921.50;1721221;81;21658;-64
2021/01/27 09:58:09;;;;;;;9.48;7.58;;;;;;;10.54;50.19;98921.31;1740911;81;21175;-64
2021/01/27 10:00:37;;;;;;;9.90;7.95;;;;;;;10.54;50.17;98911.51;1726064;81;21249;-65
2021/01/27 10:03:25;;;;;;;8.35;7.33;;;;;;;10.56;50.15;98912.14;1720190;83;21192;-65
2021/01/27 10:05:53;;;;;;;9.25;7.58;;;;;;;10.58;50.09;98910.63;1687835;83;21173;-66
2021/01/27 10:08:33;;;;;;;7.75;6.65;;;;;;;10.57;50.06;98909.00;1706561;83;22126;-65
2021/01/27 10:11:39;;;;;;;8.40;7.33;;;;;;;10.64;50.07;98905.88;1883071;75;28400;-65
2021/01/27 10:14:22;;;;;;;9.30;8.05;;;;;;;10.60;50.05;98905.47;1785944;78;21167;-65
2021/01/27 10:16:59;;;;;;;10.03;7.87;;;;;;;10.62;50.01;98908.75;1793640;79;21433;-65
2021/01/27 10:19:34;;;;;;;8.50;7.35;;;;;;;10.62;49.93;98902.11;1764268;80;21204;-66
2021/01/27 10:22:04;;;;;;;9.40;7.42;;;;;;;10.63;49.95;98896.29;1800737;78;21036;-65
2021/01/27 10:24:53;;;;;;;9.53;7.12;;;;;;;10.63;49.94;98888.32;1797854;78;21160;-67
2021/01/27 10:27:40;;;;;;;8.68;7.37;;;;;;;10.63;49.95;98898.43;1813407;78;21163;-64
2021/01/27 10:30:21;;;;;;;8.50;7.12;;;;;;;10.65;49.94;98901.42;1804957;78;21821;-68
2021/01/27 10:32:48;;;;;;;8.53;7.40;;;;;;;10.63;49.93;98900.27;1785757;80;21206;-66
2021/01/27 10:35:30;;;;;;;8.78;7.60;;;;;;;10.64;49.92;98905.88;1810156;78;21111;-69
2021/01/27 10:38:12;;;;;;;8.75;7.05;;;;;;;10.66;49.87;98904.37;1773227;80;21124;-69
2021/01/27 10:41:01;;;;;;;9.23;7.30;;;;;;;10.65;49.85;98895.59;1771517;79;21700;-67
2021/01/27 10:43:29;;;;;;;9.18;7.05;;;;;;;10.66;49.86;98892.42;1788749;79;22769;-68
2021/01/27 10:45:56;;;;;;;7.80;6.72;;;;;;;10.66;49.86;98895.08;1792123;78;21183;-66
2021/01/27 10:48:27;;;;;;;7.92;6.60;;;;;;;10.67;49.83;98898.06;1767629;80;21195;-68
2021/01/27 10:51:05;;;;;;;8.45;6.97;;;;;;;10.66;49.81;98891.91;1804231;78;21346;-67
2021/01/27 10:53:44;;;;;;;7.78;6.85;;;;;;;10.68;49.96;98896.55;1806121;78;21163;-66
2021/01/27 10:56:12;;;;;;;8.28;6.55;;;;;;;10.69;50.18;98888.07;1802549;78;21393;-67
2021/01/27 10:58:40;;;;;;;8.23;6.28;;;;;;;10.70;50.24;98886.56;1806893;78;21131;-68
2021/01/27 11:01:07;;;;;;;8.10;6.42;;;;;;;10.71;50.24;98881.55;1792098;78;21161;-69
2021/01/27 11:03:35;;;;;;;7.03;6.33;;;;;;;10.72;50.20;98881.88;1791647;78;21181;-67
2021/01/27 11:06:03;;;;;;;7.08;6.22;;;;;;;10.74;50.14;98871.88;1796501;78;21192;-66
2021/01/27 11:08:35;;;;;;;8.20;6.67;;;;;;;10.75;50.10;98878.01;1793991;78;21201;-67
2021/01/27 11:11:04;;;;;;;7.35;6.40;;;;;;;10.76;50.04;98875.17;1800629;78;21202;-66
2021/01/27 11:13:32;;;;;;;7.15;6.10;;;;;;;10.76;50.00;98871.19;1850976;77;21599;-66
2021/01/27 11:15:59;;;;;;;7.58;6.15;;;;;;;10.77;49.96;98872.81;1833940;77;21583;-68
2021/01/27 11:18:27;;;;;;;9.35;6.58;;;;;;;10.79;49.91;98871.30;1846833;77;22047;-67
2021/01/27 11:20:55;;;;;;;7.08;5.58;;;;;;;10.79;49.84;98873.95;1794932;78;22302;-67
2021/01/27 11:23:22;;;;;;;6.45;5.75;;;;;;;10.80;49.84;98872.44;1762820;79;21402;-67
2021/01/27 11:25:50;;;;;;;6.97;5.70;;;;;;;10.80;49.77;98871.11;1768721;79;21218;-66
2021/01/27 11:28:18;;;;;;;7.22;6.10;;;;;;;10.81;49.74;98866.61;1779681;79;21198;-65
2021/01/27 11:30:45;;;;;;;7.83;6.28;;;;;;;10.82;49.69;98862.95;1777151;79;21152;-66
2021/01/27 11:33:14;;;;;;;7.08;5.22;;;;;;;10.82;49.62;98857.64;1823666;77;21568;-67
2021/01/27 11:35:42;;;;;;;6.20;5.35;;;;;;;10.83;49.61;98865.91;1769383;78;21177;-66
2021/01/27 11:38:10;;;;;;;7.92;6.62;;;;;;;10.84;49.59;98858.79;1783480;78;21571;-65
2021/01/27 11:40:37;;;;;;;7.33;5.90;;;;;;;10.84;49.57;98861.45;1752011;79;21167;-68
2021/01/27 11:43:04;;;;;;;6.80;5.33;;;;;;;10.85;49.58;98856.43;1778529;80;21168;-66
2021/01/27 11:45:32;;;;;;;6.15;5.35;;;;;;;10.85;49.54;98870.53;1777080;79;21458;-64
2021/01/27 11:48:01;;;;;;;7.15;5.05;;;;;;;10.85;49.49;98858.58;1784015;80;22019;-68
2021/01/27 11:50:30;;;;;;;6.78;5.53;;;;;;;10.85;49.47;98858.58;1780538;79;21630;-68
2021/01/27 11:52:57;;;;;;;6.37;5.65;;;;;;;10.85;49.47;98857.24;1781796;80;21544;-67
2021/01/27 11:55:24;;;;;;;5.47;4.72;;;;;;;10.86;49.44;98858.09;1789028;78;21607;-67
2021/01/27 11:57:51;;;;;;;5.80;4.95;;;;;;;10.85;49.40;98845.29;1848459;77;21198;-66
2021/01/27 12:00:21;;;;;;;6.45;5.37;;;;;;;10.86;49.40;98851.45;1797939;79;21211;-66
2021/01/27 12:02:48;;;;;;;5.90;5.20;;;;;;;10.86;49.36;98852.77;1770247;80;21619;-68
2021/01/27 12:05:18;;;;;;;6.65;5.35;;;;;;;10.84;49.35;98850.81;1790572;78;21179;-66
2021/01/27 12:07:45;;;;;;;6.30;4.55;;;;;;;10.85;49.34;98847.13;1796040;78;21567;-67
2021/01/27 12:10:13;;;;;;;6.15;5.10;;;;;;;10.85;49.33;98851.12;1779698;79;22145;-67
2021/01/27 12:12:40;;;;;;;6.47;5.28;;;;;;;10.85;49.31;98845.80;1770982;79;21277;-67
2021/01/27 12:15:09;;;;;;;6.92;5.33;;;;;;;10.85;49.31;98849.79;1792901;79;21141;-67
2021/01/27 12:17:36;;;;;;;6.60;5.10;;;;;;;10.85;49.31;98848.45;1751530;81;22568;-64
2021/01/27 12:20:05;;;;;;;5.40;4.85;;;;;;;10.85;49.27;98848.45;1794794;79;21589;-65
2021/01/27 12:22:32;;;;;;;5.60;4.87;;;;;;;10.85;49.29;98851.93;1774933;80;21561;-65